createdAt,value
2023-03-26T00:00:38.161Z,76.1847
2023-03-26T00:01:39.501Z,75.3783
2023-03-26T00:02:40.141Z,76.5023
2023-03-26T00:03:41.588Z,76.1519
2023-03-26T00:04:41.662Z,75.7856
2023-03-26T00:06:42.941Z,76.4170
2023-03-26T00:07:42.974Z,76.2243
2023-03-26T00:08:44.215Z,75.5973
2023-03-26T00:09:44.225Z,75.9346
2023-03-26T00:10:45.617Z,75.3345
2023-03-26T00:11:45.612Z,75.9173
2023-03-26T00:12:45.629Z,75.8509
2023-03-26T00:13:46.847Z,75.2620
2023-03-26T00:14:46.881Z,75.6843
2023-03-26T00:15:48.127Z,76.4309
2023-03-26T00:16:48.530Z,74.7206
2023-03-26T00:17:48.566Z,75.0053
2023-03-26T00:18:49.433Z,73.9128
2023-03-26T00:19:50.897Z,73.8344
2023-03-26T00:20:52.021Z,74.3296
2023-03-26T00:22:53.116Z,74.9177
2023-03-26T00:23:53.420Z,75.9073
2023-03-26T00:24:54.638Z,76.5030
2023-03-26T00:25:55.548Z,76.7970
2023-03-26T00:26:55.832Z,75.9445
2023-03-26T00:27:57.048Z,74.8233
2023-03-26T00:28:57.103Z,76.8365
2023-03-26T00:29:58.272Z,76.9049
2023-03-26T00:30:58.534Z,75.3126
2023-03-26T00:31:58.570Z,74.9850
2023-03-26T00:32:58.820Z,75.0798
2023-03-26T00:34:00.083Z,75.6505
2023-03-26T00:35:00.067Z,76.9364
2023-03-26T00:36:05.181Z,74.3423
2023-03-26T00:37:05.139Z,73.3724
2023-03-26T00:38:06.443Z,74.9472
2023-03-26T00:39:06.866Z,75.4647
2023-03-26T00:40:07.231Z,76.0270
2023-03-26T00:41:07.319Z,74.1243
2023-03-26T00:42:07.522Z,75.1533
2023-03-26T00:43:07.635Z,74.0554
2023-03-26T00:44:08.948Z,74.9415
2023-03-26T00:45:08.968Z,73.6151
2023-03-26T00:46:10.353Z,76.8397
2023-03-26T00:47:10.913Z,77.8301
2023-03-26T00:48:11.343Z,78.2619
2023-03-26T00:49:12.054Z,74.7746
2023-03-26T00:50:12.087Z,75.7868
2023-03-26T00:51:13.259Z,75.9524
2023-03-26T00:52:13.267Z,78.9715
2023-03-26T00:53:14.729Z,76.9572
2023-03-26T00:54:14.728Z,76.9915
2023-03-26T00:55:14.746Z,76.0124
2023-03-26T00:56:15.950Z,77.7163
2023-03-26T00:57:34.548Z,76.6821
2023-03-26T00:58:20.599Z,78.8208
2023-03-26T00:59:20.607Z,78.1406
2023-03-26T01:00:22.011Z,80.2800
2023-03-26T01:01:22.043Z,78.2800
2023-03-26T01:02:22.250Z,77.1884
2023-03-26T01:03:27.840Z,79.1776
2023-03-26T01:05:24.364Z,77.3803
2023-03-26T01:06:24.404Z,78.1911
2023-03-26T01:07:25.556Z,78.4547
2023-03-26T01:08:25.610Z,79.3399
2023-03-26T01:09:26.793Z,78.0076
2023-03-26T01:10:28.131Z,78.3102
2023-03-26T01:11:29.438Z,79.6179
2023-03-26T01:12:30.657Z,78.7740
2023-03-26T01:13:30.801Z,78.4200
2023-03-26T01:14:32.007Z,79.8825
2023-03-26T01:15:32.081Z,79.1778
2023-03-26T01:16:32.380Z,78.3427
2023-03-26T01:17:32.487Z,79.5731
2023-03-26T01:18:33.672Z,78.7071
2023-03-26T01:19:33.719Z,78.8894
2023-03-26T01:20:35.117Z,79.0211
2023-03-26T01:21:36.287Z,80.1649
2023-03-26T01:22:37.597Z,80.5476
2023-03-26T01:23:38.885Z,79.3600
2023-03-26T01:24:38.899Z,79.3139
2023-03-26T01:25:40.238Z,80.4703
2023-03-26T01:26:41.410Z,80.1130
2023-03-26T01:29:43.831Z,79.3559
2023-03-26T01:30:43.786Z,80.0928
2023-03-26T01:31:45.113Z,80.4869
2023-03-26T01:32:46.134Z,80.2843
2023-03-26T01:33:46.194Z,82.1712
2023-03-26T01:34:46.254Z,80.0962
2023-03-26T01:35:47.571Z,82.1073
2023-03-26T01:36:47.797Z,80.9273
2023-03-26T01:37:48.989Z,79.9567
2023-03-26T01:38:49.599Z,80.8456
2023-03-26T01:39:51.162Z,81.0976
2023-03-26T01:40:51.786Z,81.0093
2023-03-26T01:41:51.861Z,79.7332
2023-03-26T01:42:53.094Z,80.2199
2023-03-26T01:43:53.076Z,80.4333
2023-03-26T01:44:54.405Z,80.1466
2023-03-26T01:45:55.875Z,80.6792
2023-03-26T01:46:56.481Z,80.6991
2023-03-26T01:47:56.499Z,81.6162
2023-03-26T01:48:56.566Z,82.7125
2023-03-26T01:49:56.644Z,82.6962
2023-03-26T01:50:56.794Z,80.6341
2023-03-26T01:51:58.131Z,81.2825
2023-03-26T01:52:59.355Z,82.0684
2023-03-26T01:53:59.442Z,81.4717
2023-03-26T01:55:00.701Z,82.4967
2023-03-26T01:56:00.745Z,80.9791
2023-03-26T01:57:00.758Z,82.1625
2023-03-26T01:58:00.842Z,81.6529
2023-03-26T01:59:02.024Z,82.2146
2023-03-26T02:00:03.328Z,83.1514
2023-03-26T02:01:03.512Z,83.0466
2023-03-26T02:02:03.711Z,84.9732
2023-03-26T02:03:04.982Z,84.3862
2023-03-26T02:04:05.156Z,83.1587
2023-03-26T02:06:05.681Z,83.2432
2023-03-26T02:07:06.785Z,83.3203
2023-03-26T02:08:07.108Z,81.9592
2023-03-26T02:09:08.350Z,82.3334
2023-03-26T02:10:08.423Z,81.4633
2023-03-26T02:11:09.878Z,82.3706
2023-03-26T02:12:09.895Z,83.0744
2023-03-26T02:13:09.922Z,81.7276
2023-03-26T02:14:11.121Z,80.9465
2023-03-26T02:15:11.165Z,80.9929
2023-03-26T02:16:11.147Z,82.1474
2023-03-26T02:17:11.470Z,82.4136
2023-03-26T02:18:11.569Z,81.5851
2023-03-26T02:19:11.641Z,81.9944
2023-03-26T02:20:12.820Z,82.4547
2023-03-26T02:21:12.881Z,83.5356
2023-03-26T02:22:14.213Z,82.2143
2023-03-26T02:23:15.533Z,82.2114
2023-03-26T02:24:15.632Z,82.9422
2023-03-26T02:25:16.862Z,83.9373
2023-03-26T02:27:17.851Z,84.2544
2023-03-26T02:28:17.889Z,84.1768
2023-03-26T02:29:19.325Z,83.4542
2023-03-26T02:30:20.550Z,84.1879
2023-03-26T02:31:20.636Z,83.2120
2023-03-26T02:32:20.714Z,83.6642
2023-03-26T02:33:21.322Z,84.6971
2023-03-26T02:34:22.599Z,85.2364
2023-03-26T02:35:22.959Z,84.2400
2023-03-26T02:37:23.641Z,83.8157
2023-03-26T02:38:25.093Z,83.0948
2023-03-26T02:39:25.090Z,84.7965
2023-03-26T02:40:25.423Z,84.5113
2023-03-26T02:41:26.644Z,84.0724
2023-03-26T02:42:26.771Z,83.3125
2023-03-26T02:43:27.947Z,82.9520
2023-03-26T02:45:29.323Z,83.3320
2023-03-26T02:46:29.531Z,82.8723
2023-03-26T02:47:29.936Z,81.6813
2023-03-26T02:48:29.912Z,81.9090
2023-03-26T02:49:30.020Z,82.3883
2023-03-26T02:50:30.026Z,81.5628
2023-03-26T02:51:30.549Z,81.5594
2023-03-26T02:52:31.832Z,80.5694
2023-03-26T02:53:32.110Z,80.9281
2023-03-26T02:54:32.061Z,81.6279
2023-03-26T02:55:32.160Z,82.6087
2023-03-26T02:56:33.425Z,82.0741
2023-03-26T02:57:33.702Z,81.1864
2023-03-26T02:58:33.749Z,81.3157
2023-03-26T02:59:33.881Z,81.2545
2023-03-26T03:00:34.121Z,82.2178
2023-03-26T03:01:34.607Z,81.4061
2023-03-26T03:02:34.730Z,82.0817
2023-03-26T03:03:35.440Z,81.9842
2023-03-26T03:04:35.611Z,81.9138
2023-03-26T03:05:35.629Z,83.1993
2023-03-26T03:06:35.738Z,81.3039
2023-03-26T03:07:37.065Z,81.3672
2023-03-26T03:08:37.217Z,83.2937
2023-03-26T03:09:38.512Z,82.5463
2023-03-26T03:10:38.621Z,83.3229
2023-03-26T03:11:39.948Z,83.3331
2023-03-26T03:12:39.994Z,83.2537
2023-03-26T03:13:41.488Z,83.8406
2023-03-26T03:14:42.782Z,83.8523
2023-03-26T03:15:42.958Z,83.4768
2023-03-26T03:16:43.101Z,83.5927
2023-03-26T03:17:43.578Z,83.9018
2023-03-26T03:18:43.662Z,85.6366
2023-03-26T03:19:43.783Z,87.2106
2023-03-26T03:20:43.835Z,86.3781
2023-03-26T03:21:43.991Z,86.4469
2023-03-26T03:22:45.284Z,87.2063
2023-03-26T03:23:45.395Z,87.5634
2023-03-26T03:24:46.683Z,86.2470
2023-03-26T03:25:46.791Z,86.3507
2023-03-26T03:26:47.920Z,87.0601
2023-03-26T03:27:47.876Z,86.3485
2023-03-26T03:28:48.016Z,87.6238
2023-03-26T03:29:49.304Z,87.8555
2023-03-26T03:30:49.551Z,86.1380
2023-03-26T03:31:50.106Z,86.2772
2023-03-26T03:32:50.695Z,86.5833
2023-03-26T03:33:50.845Z,86.1440
2023-03-26T03:34:51.004Z,88.2157
2023-03-26T03:35:51.327Z,85.2819
2023-03-26T03:37:52.740Z,87.0507
2023-03-26T03:38:54.070Z,87.0103
2023-03-26T03:39:54.242Z,85.2016
2023-03-26T03:40:54.253Z,85.5250
2023-03-26T03:42:55.664Z,88.7555
2023-03-26T03:43:55.929Z,88.2181
2023-03-26T03:44:56.100Z,89.5526
2023-03-26T03:45:56.682Z,89.9041
2023-03-26T03:46:57.284Z,89.8510
2023-03-26T03:47:57.674Z,89.6593
2023-03-26T03:48:57.942Z,90.2294
2023-03-26T03:49:59.215Z,88.8907
2023-03-26T03:50:59.523Z,89.4150
2023-03-26T03:51:59.540Z,90.7792
2023-03-26T03:52:59.965Z,89.5103
2023-03-26T03:54:00.002Z,89.6333
2023-03-26T03:55:00.158Z,87.8820
2023-03-26T03:56:00.348Z,87.8072
2023-03-26T03:57:00.770Z,88.6019
2023-03-26T03:58:00.768Z,87.0761
2023-03-26T03:59:00.886Z,87.2426
2023-03-26T04:00:01.684Z,86.1533
2023-03-26T04:01:03.037Z,85.3105
2023-03-26T04:02:03.181Z,86.9057
2023-03-26T04:03:03.695Z,86.3492
2023-03-26T04:04:04.723Z,86.3276
2023-03-26T04:05:04.950Z,86.7402
2023-03-26T04:06:05.169Z,86.2667
2023-03-26T04:07:05.152Z,86.0735
2023-03-26T04:08:05.331Z,86.2620
2023-03-26T04:10:08.095Z,85.4158
2023-03-26T04:11:08.225Z,86.5793
2023-03-26T04:12:08.221Z,87.3805
2023-03-26T04:13:08.318Z,85.1040
2023-03-26T04:14:08.336Z,85.1308
2023-03-26T04:15:08.495Z,86.4179
2023-03-26T04:16:08.637Z,89.2039
2023-03-26T04:17:08.932Z,87.6619
2023-03-26T04:18:09.081Z,86.6753
2023-03-26T04:19:09.240Z,84.9872
2023-03-26T04:20:09.289Z,86.9823
2023-03-26T04:21:09.477Z,86.5491
2023-03-26T04:22:09.481Z,87.4830
2023-03-26T04:23:09.619Z,85.9585
2023-03-26T04:24:10.879Z,87.2320
2023-03-26T04:25:11.474Z,87.5196
2023-03-26T04:26:11.622Z,87.4251
2023-03-26T04:27:11.650Z,88.3598
2023-03-26T04:28:11.817Z,85.7702
2023-03-26T04:29:13.157Z,86.8586
2023-03-26T04:31:14.465Z,87.1250
2023-03-26T04:32:14.950Z,84.3572
2023-03-26T04:33:15.169Z,83.2576
2023-03-26T04:34:15.375Z,83.5611
2023-03-26T04:35:15.353Z,84.3519
2023-03-26T04:36:15.771Z,85.8439
2023-03-26T04:37:15.763Z,85.7242
2023-03-26T04:39:15.836Z,86.0503
2023-03-26T04:40:16.033Z,85.4486
2023-03-26T04:41:16.014Z,85.8744
2023-03-26T04:42:16.119Z,84.5698
2023-03-26T04:43:16.147Z,85.4659
2023-03-26T04:44:16.217Z,87.2159
2023-03-26T04:45:17.507Z,86.8477
2023-03-26T04:46:17.702Z,84.8942
2023-03-26T04:47:17.781Z,84.4683
2023-03-26T04:48:18.444Z,84.3935
2023-03-26T04:49:19.926Z,83.7899
2023-03-26T04:50:21.213Z,86.6222
2023-03-26T04:51:21.428Z,84.9929
2023-03-26T04:52:21.446Z,84.1575
2023-03-26T04:53:22.598Z,85.0163
2023-03-26T04:54:24.094Z,85.5142
2023-03-26T04:55:25.430Z,86.8398
2023-03-26T04:56:25.581Z,85.5212
2023-03-26T04:57:25.731Z,84.8369
2023-03-26T04:58:25.856Z,84.6206
2023-03-26T04:59:25.858Z,84.9884
2023-03-26T05:00:26.023Z,85.0655
2023-03-26T05:01:26.036Z,86.1283
2023-03-26T05:02:26.350Z,85.4861
2023-03-26T05:03:27.002Z,85.7035
2023-03-26T05:04:27.618Z,86.3277
2023-03-26T05:05:27.682Z,85.0316
2023-03-26T05:06:28.525Z,85.1955
2023-03-26T05:07:28.520Z,86.7222
2023-03-26T05:08:28.733Z,85.7426
2023-03-26T05:09:28.709Z,86.8300
2023-03-26T05:10:28.771Z,87.9041
2023-03-26T05:11:29.563Z,88.2002
2023-03-26T05:12:29.697Z,86.3190
2023-03-26T05:13:29.750Z,86.0473
2023-03-26T05:14:30.054Z,86.9100
2023-03-26T05:15:31.582Z,88.0116
2023-03-26T05:16:31.944Z,86.2329
2023-03-26T05:17:32.381Z,85.9288
2023-03-26T05:18:32.537Z,85.0733
2023-03-26T05:19:32.687Z,85.6512
2023-03-26T05:20:32.697Z,86.6727
2023-03-26T05:21:32.834Z,85.8426
2023-03-26T05:23:34.146Z,87.0927
2023-03-26T05:24:34.166Z,85.1896
2023-03-26T05:25:34.353Z,84.3133
2023-03-26T05:26:34.315Z,84.0706
2023-03-26T05:27:34.431Z,84.6009
2023-03-26T05:28:35.722Z,85.1137
2023-03-26T05:29:35.830Z,85.5764
2023-03-26T05:30:36.182Z,85.5483
2023-03-26T05:31:36.613Z,87.4346
2023-03-26T05:32:36.783Z,85.7839
2023-03-26T05:33:36.856Z,86.6536
2023-03-26T05:34:37.162Z,87.1594
2023-03-26T05:35:37.460Z,87.0509
2023-03-26T05:36:37.733Z,85.8199
2023-03-26T05:37:38.010Z,84.2554
2023-03-26T05:38:38.462Z,84.4673
2023-03-26T05:39:38.626Z,85.4354
2023-03-26T05:40:39.067Z,87.5056
2023-03-26T05:41:39.323Z,86.9315
2023-03-26T05:42:39.430Z,86.5213
2023-03-26T05:43:39.702Z,88.3361
2023-03-26T05:44:39.892Z,89.3274
2023-03-26T05:45:40.184Z,89.5439
2023-03-26T05:46:40.487Z,89.0661
2023-03-26T05:47:41.106Z,89.4529
2023-03-26T05:48:41.663Z,90.8269
2023-03-26T05:49:41.744Z,90.4372
2023-03-26T05:50:41.988Z,91.6460
2023-03-26T05:52:42.510Z,92.1473
2023-03-26T05:53:42.583Z,93.2758
2023-03-26T05:55:44.085Z,92.9069
2023-03-26T05:56:44.884Z,91.6190
2023-03-26T05:57:45.185Z,93.4924
2023-03-26T05:58:45.379Z,93.1071
2023-03-26T05:59:45.424Z,93.0358
2023-03-26T06:00:45.682Z,94.4298
2023-03-26T06:01:46.269Z,94.6265
2023-03-26T06:02:46.899Z,95.3611
2023-03-26T06:04:48.173Z,94.8662
2023-03-26T06:05:48.629Z,95.9601
2023-03-26T06:06:48.677Z,96.3370
2023-03-26T06:07:48.967Z,96.4189
2023-03-26T06:08:49.044Z,94.7553
2023-03-26T06:09:50.425Z,96.2883
2023-03-26T06:10:51.071Z,96.6312
2023-03-26T06:11:52.068Z,96.5978
2023-03-26T06:12:52.134Z,96.3411
2023-03-26T06:14:53.640Z,96.5571
2023-03-26T06:15:53.942Z,96.7292
2023-03-26T06:16:54.090Z,94.8286
2023-03-26T06:17:54.296Z,94.7501
2023-03-26T06:18:59.555Z,93.7729
2023-03-26T06:19:59.813Z,93.2481
2023-03-26T06:21:00.301Z,92.9056
2023-03-26T06:22:00.515Z,92.5316
2023-03-26T06:23:00.583Z,93.9661
2023-03-26T06:24:00.809Z,94.5515
2023-03-26T06:25:01.068Z,95.0826
2023-03-26T06:26:01.441Z,94.5472
2023-03-26T06:28:01.626Z,92.3356
2023-03-26T06:29:01.670Z,94.4361
2023-03-26T06:30:01.939Z,94.6639
2023-03-26T06:32:16.179Z,92.5290
2023-03-26T06:33:04.441Z,93.3437
2023-03-26T06:34:04.595Z,94.5452
2023-03-26T06:35:04.724Z,95.4663
2023-03-26T06:36:05.169Z,95.8791
2023-03-26T06:37:05.492Z,95.9725
2023-03-26T06:38:05.614Z,96.1412
2023-03-26T06:39:09.782Z,95.9281
2023-03-26T06:40:09.890Z,94.2515
2023-03-26T06:41:10.575Z,95.3322
2023-03-26T06:42:10.910Z,95.2859
2023-03-26T06:44:12.004Z,96.2318
2023-03-26T06:45:12.112Z,95.9756
2023-03-26T06:46:12.519Z,96.0853
2023-03-26T06:47:12.630Z,95.2265
2023-03-26T06:48:13.063Z,96.2252
2023-03-26T06:50:13.286Z,96.4845
2023-03-26T06:51:13.542Z,96.5749
2023-03-26T06:52:13.736Z,95.5416
2023-03-26T06:53:13.861Z,96.4262
2023-03-26T06:54:14.169Z,94.4919
2023-03-26T06:55:14.247Z,95.2486
2023-03-26T06:56:15.220Z,95.0243
2023-03-26T06:57:15.858Z,95.6927
2023-03-26T06:58:15.975Z,95.5745
2023-03-26T06:59:16.249Z,95.4858
2023-03-26T07:00:16.387Z,95.3067
2023-03-26T07:02:16.670Z,97.0568
2023-03-26T07:03:17.203Z,95.2682
2023-03-26T07:04:18.402Z,96.5237
2023-03-26T07:05:18.887Z,96.9104
2023-03-26T07:06:18.981Z,97.0790
2023-03-26T07:07:19.274Z,94.4746
2023-03-26T07:08:19.941Z,91.4685
2023-03-26T07:09:20.167Z,91.7710
2023-03-26T07:10:20.273Z,89.9705
2023-03-26T07:11:21.138Z,93.8964
2023-03-26T07:12:21.411Z,90.3346
2023-03-26T07:13:21.453Z,87.4422
2023-03-26T07:14:22.561Z,89.6733
2023-03-26T07:17:23.490Z,87.7720
2023-03-26T07:18:23.935Z,87.5657
2023-03-26T07:19:24.024Z,84.6329
2023-03-26T07:20:24.445Z,87.5025
2023-03-26T07:21:24.921Z,87.7025
2023-03-26T07:22:25.153Z,87.5468
2023-03-26T07:23:25.554Z,87.6651
2023-03-26T07:24:25.846Z,86.8742
2023-03-26T07:25:26.000Z,87.0947
2023-03-26T07:26:26.212Z,87.3859
2023-03-26T07:27:26.342Z,86.1142
2023-03-26T07:28:26.752Z,86.2378
2023-03-26T07:29:27.621Z,86.6384
2023-03-26T07:30:27.705Z,87.6766
2023-03-26T07:31:28.064Z,87.5201
2023-03-26T07:32:28.764Z,88.0546
2023-03-26T07:33:29.061Z,88.0793
2023-03-26T07:34:29.237Z,87.9180
2023-03-26T07:35:29.644Z,89.0164
2023-03-26T07:36:29.738Z,89.4596
2023-03-26T07:37:30.023Z,89.9168
2023-03-26T07:38:30.103Z,89.8721
2023-03-26T07:39:31.304Z,88.4539
2023-03-26T07:40:31.597Z,88.5814
2023-03-26T07:41:32.247Z,88.5997
2023-03-26T07:42:32.414Z,88.3384
2023-03-26T07:43:32.636Z,88.8114
2023-03-26T07:44:34.590Z,89.7381
2023-03-26T07:45:33.335Z,90.6625
2023-03-26T07:46:33.709Z,89.4246
2023-03-26T07:47:34.141Z,87.5900
2023-03-26T07:50:35.677Z,89.1943
2023-03-26T07:51:36.363Z,88.4999
2023-03-26T07:52:36.512Z,87.0862
2023-03-26T07:53:36.764Z,87.8626
2023-03-26T07:54:36.924Z,88.4227
2023-03-26T07:55:37.186Z,88.6926
2023-03-26T07:56:37.373Z,88.3405
2023-03-26T07:57:38.369Z,88.0693
2023-03-26T07:58:38.475Z,87.9537
2023-03-26T07:59:38.812Z,88.8040
2023-03-26T08:00:38.944Z,90.7955
2023-03-26T08:01:39.167Z,89.4950
2023-03-26T08:02:39.352Z,90.7583
2023-03-26T08:03:40.436Z,89.5045
2023-03-26T08:04:41.494Z,88.6362
2023-03-26T08:05:42.302Z,89.4678
2023-03-26T08:06:42.549Z,88.5990
2023-03-26T08:07:43.522Z,89.1139
2023-03-26T08:08:43.805Z,90.3416
2023-03-26T08:09:44.107Z,91.5215
2023-03-26T08:10:44.211Z,91.1172
2023-03-26T08:11:44.977Z,90.3198
2023-03-26T08:12:45.222Z,91.2751
2023-03-26T08:13:45.471Z,91.5483
2023-03-26T08:14:45.703Z,90.9361
2023-03-26T08:15:46.203Z,90.5219
2023-03-26T08:18:47.060Z,90.8790
2023-03-26T08:19:47.502Z,90.3979
2023-03-26T08:20:47.717Z,90.1002
2023-03-26T08:21:48.089Z,90.7405
2023-03-26T08:22:48.232Z,91.2507
2023-03-26T08:23:51.963Z,90.8037
2023-03-26T08:25:51.195Z,91.3820
2023-03-26T08:26:51.640Z,92.1768
2023-03-26T08:28:52.074Z,91.3699
2023-03-26T08:29:52.287Z,92.0751
2023-03-26T08:30:53.241Z,92.5003
2023-03-26T08:31:53.242Z,92.5892
2023-03-26T08:32:53.696Z,91.7767
2023-03-26T08:33:53.908Z,91.7764
2023-03-26T08:34:54.322Z,92.0494
2023-03-26T08:35:55.075Z,92.8626
2023-03-26T08:36:55.558Z,93.1735
2023-03-26T08:37:55.756Z,91.9887
2023-03-26T08:38:56.111Z,91.2944
2023-03-26T08:39:56.362Z,91.5810
2023-03-26T08:40:57.372Z,92.3665
2023-03-26T08:41:57.881Z,91.8844
2023-03-26T08:42:58.190Z,91.6237
2023-03-26T08:43:58.548Z,91.6983
2023-03-26T08:44:58.958Z,91.8377
2023-03-26T08:46:59.526Z,91.1947
2023-03-26T08:47:59.990Z,90.8563
2023-03-26T08:49:00.166Z,92.0757
2023-03-26T08:50:00.860Z,91.3531
2023-03-26T08:51:01.728Z,91.0857
2023-03-26T08:52:02.078Z,91.4529
2023-03-26T08:53:02.255Z,92.1047
2023-03-26T08:54:02.567Z,90.4797
2023-03-26T08:55:02.932Z,90.7992
2023-03-26T08:56:03.303Z,92.0918
2023-03-26T08:57:03.712Z,91.5029
2023-03-26T08:58:04.818Z,91.1422
2023-03-26T09:00:05.915Z,90.4899
2023-03-26T09:01:07.041Z,90.6559
2023-03-26T09:02:07.672Z,91.7053
2023-03-26T09:03:08.399Z,90.3601
2023-03-26T09:04:08.817Z,89.9960
2023-03-26T09:05:09.062Z,91.0342
2023-03-26T09:06:09.268Z,92.5365
2023-03-26T09:07:09.561Z,91.6137
2023-03-26T09:08:09.730Z,91.9940
2023-03-26T09:09:18.766Z,91.2900
2023-03-26T09:10:11.662Z,91.5382
2023-03-26T09:11:12.567Z,91.5951
2023-03-26T09:12:12.919Z,91.5048
2023-03-26T09:13:13.389Z,92.3750
2023-03-26T09:15:14.020Z,90.8839
2023-03-26T09:16:14.596Z,90.7023
2023-03-26T09:17:15.073Z,90.5259
2023-03-26T09:18:15.573Z,88.2389
2023-03-26T09:19:15.788Z,89.5569
2023-03-26T09:21:16.809Z,90.4042
2023-03-26T09:22:17.114Z,89.8905
2023-03-26T09:23:17.328Z,90.2424
2023-03-26T09:24:17.715Z,89.1369
2023-03-26T09:25:17.956Z,88.6202
2023-03-26T09:26:18.357Z,87.8420
2023-03-26T09:27:18.523Z,88.2219
2023-03-26T09:28:18.838Z,88.9061
2023-03-26T09:29:18.975Z,88.7781
2023-03-26T09:30:20.014Z,87.1552
2023-03-26T09:31:20.356Z,87.5825
2023-03-26T09:32:21.103Z,86.8250
2023-03-26T09:33:21.476Z,87.6239
2023-03-26T09:34:21.801Z,88.0879
2023-03-26T09:35:21.946Z,88.8458
2023-03-26T09:36:22.630Z,88.0681
2023-03-26T09:37:22.840Z,88.1496
2023-03-26T09:38:23.654Z,88.0265
2023-03-26T09:39:24.025Z,88.0030
2023-03-26T09:40:24.127Z,87.3444
2023-03-26T09:42:25.077Z,87.1067
2023-03-26T09:43:25.402Z,87.2322
2023-03-26T09:44:25.700Z,86.0333
2023-03-26T09:45:25.996Z,86.6561
2023-03-26T09:46:26.471Z,85.6668
2023-03-26T09:47:27.028Z,86.4636
2023-03-26T09:48:27.404Z,86.9185
2023-03-26T09:49:27.810Z,86.1002
2023-03-26T09:50:28.029Z,85.9727
2023-03-26T09:51:28.445Z,85.7459
2023-03-26T09:52:28.668Z,84.9457
2023-03-26T09:53:29.076Z,84.7818
2023-03-26T09:54:29.325Z,85.2759
2023-03-26T09:55:29.804Z,84.5527
2023-03-26T09:56:30.029Z,83.5996
2023-03-26T09:57:30.588Z,83.6132
2023-03-26T09:58:31.181Z,81.6728
2023-03-26T09:59:31.366Z,81.3172
2023-03-26T10:01:32.468Z,82.8302
2023-03-26T10:02:46.672Z,82.8431
2023-03-26T10:03:37.428Z,82.7506
2023-03-26T10:04:38.083Z,82.6475
2023-03-26T10:05:38.851Z,83.5982
2023-03-26T10:06:39.485Z,81.8658
2023-03-26T10:07:40.152Z,82.0756
2023-03-26T10:08:40.605Z,82.5137
2023-03-26T10:10:41.516Z,82.6034
2023-03-26T10:11:42.159Z,82.3932
2023-03-26T10:12:41.760Z,82.4885
2023-03-26T10:14:42.391Z,82.6785
2023-03-26T10:16:42.692Z,81.3656
2023-03-26T10:17:43.341Z,80.8049
2023-03-26T10:19:44.514Z,81.2931
2023-03-26T10:20:44.988Z,79.8201
2023-03-26T10:21:45.869Z,79.6745
2023-03-26T10:22:46.206Z,79.4299
2023-03-26T10:23:46.678Z,78.9972
2023-03-26T10:24:46.965Z,79.1239
2023-03-26T10:25:47.404Z,80.1790
2023-03-26T10:27:09.208Z,80.0940
2023-03-26T10:27:48.674Z,79.7743
2023-03-26T10:28:49.179Z,80.0191
2023-03-26T10:29:49.763Z,80.4901
2023-03-26T10:30:50.388Z,79.2517
2023-03-26T10:31:51.163Z,79.2092
2023-03-26T10:33:51.653Z,79.2105
2023-03-26T10:34:52.782Z,79.5282
2023-03-26T10:35:53.414Z,79.2466
2023-03-26T10:36:54.114Z,77.9500
2023-03-26T10:37:54.184Z,78.2981
2023-03-26T10:38:54.725Z,78.2621
2023-03-26T10:39:55.636Z,78.4533
2023-03-26T10:40:56.287Z,79.2074
2023-03-26T10:41:56.052Z,79.1457
2023-03-26T10:42:56.343Z,79.3361
2023-03-26T10:44:07.525Z,79.6727
2023-03-26T10:44:57.075Z,78.7197
2023-03-26T10:45:57.777Z,79.2992
2023-03-26T10:46:58.342Z,78.9905
2023-03-26T10:47:59.047Z,79.7212
2023-03-26T10:48:59.469Z,78.9274
2023-03-26T10:50:00.409Z,79.2893
2023-03-26T10:51:01.666Z,77.7992
2023-03-26T10:52:02.333Z,77.2097
2023-03-26T10:53:03.202Z,76.7739
2023-03-26T10:54:04.333Z,76.5699
2023-03-26T10:55:05.376Z,77.9540
2023-03-26T10:56:06.053Z,78.5333
2023-03-26T10:57:07.123Z,78.3228
2023-03-26T10:58:08.005Z,77.8971
2023-03-26T10:59:08.409Z,78.1626
2023-03-26T11:00:09.448Z,76.5361
2023-03-26T11:01:09.957Z,75.8326
2023-03-26T11:02:11.083Z,76.0572
2023-03-26T11:06:13.490Z,76.4182
2023-03-26T11:07:14.507Z,76.7372
2023-03-26T11:08:14.869Z,76.7347
2023-03-26T11:09:15.324Z,75.2604
2023-03-26T11:10:15.808Z,74.6623
2023-03-26T11:11:16.379Z,74.3028
2023-03-26T11:12:26.738Z,75.3306
2023-03-26T11:13:18.337Z,76.3454
2023-03-26T11:14:33.784Z,75.8246
2023-03-26T11:15:22.372Z,76.8983
2023-03-26T11:16:23.170Z,75.4193
2023-03-26T11:17:40.627Z,74.0808
2023-03-26T11:18:24.423Z,72.7399
2023-03-26T11:19:24.972Z,72.3370
2023-03-26T11:22:26.834Z,72.6844
2023-03-26T11:23:27.758Z,70.6111
2023-03-26T11:24:28.732Z,71.2180
2023-03-26T11:25:29.165Z,71.5389
2023-03-26T11:26:29.644Z,72.0780
2023-03-26T11:27:29.698Z,71.2905
2023-03-26T11:28:30.176Z,71.4344
2023-03-26T11:29:33.636Z,71.7637
2023-03-26T11:31:32.359Z,71.9374
2023-03-26T11:32:33.124Z,71.7759
2023-03-26T11:33:33.561Z,72.1229
2023-03-26T11:34:34.754Z,70.9027
2023-03-26T11:35:41.756Z,70.6975
2023-03-26T11:37:41.017Z,70.5016
2023-03-26T11:38:41.573Z,71.5686
2023-03-26T11:39:41.979Z,72.0093
2023-03-26T11:40:42.652Z,70.8991
2023-03-26T11:41:43.075Z,71.2650
2023-03-26T11:42:43.795Z,71.0867
2023-03-26T11:43:44.197Z,69.3190
2023-03-26T11:44:44.814Z,69.5813
2023-03-26T11:45:45.306Z,69.1190
2023-03-26T11:46:45.738Z,69.1197
2023-03-26T11:47:46.657Z,69.1991
2023-03-26T11:48:47.143Z,70.4409
2023-03-26T11:49:47.575Z,69.3715
2023-03-26T11:50:48.009Z,68.3196
2023-03-26T11:51:48.896Z,69.4911
2023-03-26T11:53:49.418Z,68.9175
2023-03-26T11:54:49.987Z,68.7791
2023-03-26T11:55:50.256Z,68.2502
2023-03-26T11:57:06.021Z,68.1215
2023-03-26T11:57:54.342Z,67.4219
2023-03-26T11:58:54.847Z,67.0565
2023-03-26T11:59:59.968Z,67.2087
2023-03-26T12:01:00.766Z,68.2772
2023-03-26T12:02:01.320Z,65.8627
2023-03-26T12:03:01.555Z,64.8251
2023-03-26T12:04:02.036Z,65.1419
2023-03-26T12:05:03.397Z,64.2927
2023-03-26T12:06:04.354Z,64.7770
2023-03-26T12:07:04.686Z,66.5665
2023-03-26T12:08:05.415Z,66.1128
2023-03-26T12:09:05.778Z,66.5232
2023-03-26T12:10:18.280Z,67.3891
2023-03-26T12:11:11.865Z,67.1920
2023-03-26T12:12:13.045Z,66.9335
2023-03-26T12:13:13.640Z,66.9422
2023-03-26T12:14:14.005Z,65.0910
2023-03-26T12:15:14.543Z,66.1276
2023-03-26T12:16:14.958Z,66.0870
2023-03-26T12:17:15.730Z,65.6412
2023-03-26T12:18:16.863Z,65.1529
2023-03-26T12:19:17.330Z,63.6922
2023-03-26T12:20:17.902Z,63.1075
2023-03-26T12:21:18.521Z,63.9923
2023-03-26T12:22:19.233Z,63.2818
2023-03-26T12:23:19.627Z,63.3491
2023-03-26T12:24:20.251Z,63.9522
2023-03-26T12:25:20.645Z,64.5571
2023-03-26T12:26:21.247Z,65.0225
2023-03-26T12:27:21.632Z,64.6047
2023-03-26T12:28:22.143Z,64.3549
2023-03-26T12:29:22.732Z,65.1483
2023-03-26T12:30:23.401Z,65.5154
2023-03-26T12:31:23.923Z,65.8706
2023-03-26T12:32:32.439Z,67.5932
2023-03-26T12:33:25.349Z,71.3330
2023-03-26T12:34:25.466Z,71.9047
2023-03-26T12:36:26.831Z,73.1793
2023-03-26T12:37:27.387Z,71.2014
2023-03-26T12:38:27.904Z,71.2057
2023-03-26T12:40:30.702Z,70.0422
2023-03-26T12:44:44.672Z,69.5921
2023-03-26T12:44:50.756Z,68.2714
2023-03-26T12:44:52.690Z,68.8425
2023-03-26T12:45:00.519Z,69.3128
2023-03-26T12:47:55.405Z,67.8104
2023-03-26T12:48:00.516Z,66.7530
2023-03-26T12:48:06.507Z,66.3008
2023-03-26T12:49:07.267Z,65.9335
2023-03-26T12:50:08.560Z,64.5704
2023-03-26T12:51:08.940Z,61.4396
2023-03-26T12:52:09.543Z,59.3441
2023-03-26T12:53:10.002Z,57.9147
2023-03-26T12:54:10.270Z,56.6230
2023-03-26T12:55:13.997Z,56.2258
2023-03-26T12:57:14.476Z,58.7550
2023-03-26T12:58:15.966Z,58.8712
2023-03-26T12:59:16.363Z,58.6073
2023-03-26T13:00:17.135Z,58.2703
2023-03-26T13:01:17.819Z,58.6990
2023-03-26T13:02:18.876Z,58.6172
2023-03-26T13:03:19.405Z,58.8859
2023-03-26T13:04:19.568Z,62.2000
2023-03-26T13:06:19.877Z,60.3576
2023-03-26T13:07:20.170Z,63.2150
2023-03-26T13:08:20.723Z,65.2644